createdAt,value
2024-05-09T00:00:42.895Z,0.00
2024-05-09T00:01:42.877Z,0.00
2024-05-09T00:02:42.813Z,0.00
2024-05-09T00:03:42.920Z,0.00
2024-05-09T00:04:42.914Z,0.00
2024-05-09T00:05:43.366Z,0.00
2024-05-09T00:06:42.780Z,0.00
2024-05-09T00:07:42.787Z,0.00
2024-05-09T00:08:42.806Z,0.00
2024-05-09T00:09:42.752Z,0.00
2024-05-09T00:10:42.740Z,0.00
2024-05-09T00:11:42.798Z,0.00
2024-05-09T00:12:42.701Z,0.00
2024-05-09T00:13:42.802Z,0.00
2024-05-09T00:14:42.691Z,0.00
2024-05-09T00:15:42.677Z,0.00
2024-05-09T00:16:42.722Z,0.00
2024-05-09T00:17:42.949Z,0.00
2024-05-09T00:18:42.747Z,0.00
2024-05-09T00:19:42.741Z,0.00
2024-05-09T00:20:42.665Z,0.00
2024-05-09T00:21:42.630Z,0.00
2024-05-09T00:22:42.685Z,0.00
2024-05-09T00:23:42.664Z,0.00
2024-05-09T00:24:42.584Z,0.00
2024-05-09T00:25:42.997Z,0.00
2024-05-09T00:26:42.626Z,0.00
2024-05-09T00:27:42.571Z,0.00
2024-05-09T00:28:42.638Z,0.00
2024-05-09T00:29:42.535Z,0.00
2024-05-09T00:30:42.530Z,0.00
2024-05-09T00:31:42.549Z,0.00
2024-05-09T00:32:42.685Z,0.00
2024-05-09T00:33:42.726Z,0.00
2024-05-09T00:34:42.506Z,0.00
2024-05-09T00:35:42.556Z,0.00
2024-05-09T00:36:42.471Z,0.00
2024-05-09T00:37:42.527Z,0.00
2024-05-09T00:38:42.466Z,0.00
2024-05-09T00:39:42.435Z,0.00
2024-05-09T00:40:43.620Z,0.00
2024-05-09T00:41:42.441Z,0.00
2024-05-09T00:42:42.396Z,0.00
2024-05-09T00:43:42.413Z,0.00
2024-05-09T00:44:42.369Z,0.00
2024-05-09T00:45:42.405Z,0.00
2024-05-09T00:46:42.479Z,0.00
2024-05-09T00:47:42.490Z,0.00
2024-05-09T00:48:42.411Z,0.00
2024-05-09T00:49:42.572Z,0.00
2024-05-09T00:50:42.765Z,0.00
2024-05-09T00:51:42.316Z,0.00
2024-05-09T00:52:42.376Z,0.00
2024-05-09T00:53:42.357Z,0.00
2024-05-09T00:54:42.277Z,0.00
2024-05-09T00:55:42.278Z,0.00
2024-05-09T00:56:42.306Z,0.00
2024-05-09T00:57:42.246Z,0.00
2024-05-09T00:58:42.264Z,0.00
2024-05-09T00:59:42.210Z,0.00
2024-05-09T01:00:42.274Z,0.00
2024-05-09T01:01:42.311Z,0.00
2024-05-09T01:02:42.363Z,0.00
2024-05-09T01:03:42.408Z,0.00
2024-05-09T01:04:42.337Z,0.00
2024-05-09T01:05:42.639Z,0.00
2024-05-09T01:06:42.158Z,0.00
2024-05-09T01:07:42.295Z,0.00
2024-05-09T01:08:42.218Z,0.00
2024-05-09T01:09:42.141Z,0.00
2024-05-09T01:10:44.866Z,0.00
2024-05-09T01:11:42.226Z,0.00
2024-05-09T01:12:42.122Z,0.00
2024-05-09T01:13:42.107Z,0.00
2024-05-09T01:14:42.082Z,0.00
2024-05-09T01:15:42.068Z,0.00
2024-05-09T01:16:42.057Z,0.00
2024-05-09T01:17:42.283Z,0.00
2024-05-09T01:18:42.114Z,0.00
2024-05-09T01:19:42.160Z,0.00
2024-05-09T01:20:44.406Z,0.00
2024-05-09T01:21:41.992Z,0.00
2024-05-09T01:23:15.805Z,0.00
2024-05-09T01:23:42.031Z,0.00
2024-05-09T01:24:42.008Z,0.00
2024-05-09T01:25:42.008Z,0.00
2024-05-09T01:26:41.982Z,0.00
2024-05-09T01:27:41.935Z,0.00
2024-05-09T01:28:41.951Z,0.00
2024-05-09T01:29:41.911Z,0.00
2024-05-09T01:30:41.899Z,0.00
2024-05-09T01:31:41.914Z,0.00
2024-05-09T01:32:41.979Z,0.00
2024-05-09T01:33:42.038Z,0.00
2024-05-09T01:34:41.855Z,0.00
2024-05-09T01:35:42.905Z,0.00
2024-05-09T01:36:41.832Z,0.00
2024-05-09T01:37:41.840Z,0.00
2024-05-09T01:38:41.867Z,0.00
2024-05-09T01:39:41.808Z,0.00
2024-05-09T01:40:41.838Z,0.00
2024-05-09T01:41:41.780Z,0.00
2024-05-09T01:42:41.803Z,0.00
2024-05-09T01:43:41.771Z,0.00
2024-05-09T01:44:41.759Z,0.00
2024-05-09T01:45:41.862Z,0.00
2024-05-09T01:46:41.764Z,0.00
2024-05-09T01:47:42.286Z,0.00
2024-05-09T01:48:41.803Z,0.00
2024-05-09T01:49:41.781Z,0.00
2024-05-09T01:50:43.132Z,0.00
2024-05-09T01:51:41.691Z,0.00
2024-05-09T01:52:41.670Z,0.00
2024-05-09T01:53:41.703Z,0.00
2024-05-09T01:54:41.655Z,0.00
2024-05-09T01:55:41.651Z,0.00
2024-05-09T01:56:41.733Z,0.00
2024-05-09T01:57:41.626Z,0.00
2024-05-09T01:58:41.614Z,0.00
2024-05-09T01:59:41.623Z,0.00
2024-05-09T02:00:43.129Z,0.00
2024-05-09T02:01:56.086Z,0.00
2024-05-09T02:02:42.612Z,0.00
2024-05-09T02:03:41.700Z,0.00
2024-05-09T02:04:41.674Z,0.00
2024-05-09T02:05:41.623Z,0.00
2024-05-09T02:06:41.523Z,0.00
2024-05-09T02:07:41.513Z,0.00
2024-05-09T02:08:41.571Z,0.00
2024-05-09T02:09:41.491Z,0.00
2024-05-09T02:10:41.530Z,0.00
2024-05-09T02:11:41.664Z,0.00
2024-05-09T02:12:41.468Z,0.00
2024-05-09T02:13:41.453Z,0.00
2024-05-09T02:14:41.484Z,0.00
2024-05-09T02:15:41.474Z,0.00
2024-05-09T02:16:41.429Z,0.00
2024-05-09T02:17:41.870Z,0.00
2024-05-09T02:18:41.437Z,0.00
2024-05-09T02:19:41.414Z,0.00
2024-05-09T02:20:42.065Z,0.00
2024-05-09T02:21:41.393Z,0.00
2024-05-09T02:22:41.389Z,0.00
2024-05-09T02:23:41.376Z,0.00
2024-05-09T02:24:41.371Z,0.00
2024-05-09T02:25:41.329Z,0.00
2024-05-09T02:26:41.324Z,0.00
2024-05-09T02:27:41.318Z,0.00
2024-05-09T02:28:41.316Z,0.00
2024-05-09T02:29:41.407Z,0.00
2024-05-09T02:30:42.403Z,0.00
2024-05-09T02:31:41.272Z,0.00
2024-05-09T02:32:41.403Z,0.00
2024-05-09T02:33:41.375Z,0.00
2024-05-09T02:34:41.380Z,0.00
2024-05-09T02:35:41.348Z,0.00
2024-05-09T02:36:41.226Z,0.00
2024-05-09T02:37:41.201Z,0.00
2024-05-09T02:38:41.264Z,0.00
2024-05-09T02:39:41.205Z,0.00
2024-05-09T02:40:41.232Z,0.00
2024-05-09T02:41:41.164Z,0.00
2024-05-09T02:42:41.167Z,0.00
2024-05-09T02:43:41.159Z,0.00
2024-05-09T02:44:41.132Z,0.00
2024-05-09T02:45:41.149Z,0.00
2024-05-09T02:46:41.111Z,0.00
2024-05-09T02:47:41.272Z,0.00
2024-05-09T02:48:41.129Z,0.00
2024-05-09T02:49:41.142Z,0.00
2024-05-09T02:50:41.348Z,0.00
2024-05-09T02:51:41.078Z,0.00
2024-05-09T02:52:41.066Z,0.00
2024-05-09T02:53:41.140Z,0.00
2024-05-09T02:54:41.049Z,0.00
2024-05-09T02:55:41.023Z,0.00
2024-05-09T02:56:41.135Z,0.00
2024-05-09T02:57:41.013Z,0.00
2024-05-09T02:58:41.014Z,0.00
2024-05-09T02:59:40.989Z,0.00
2024-05-09T03:00:42.595Z,0.00
2024-05-09T03:01:41.081Z,0.00
2024-05-09T03:02:41.037Z,0.00
2024-05-09T03:03:41.046Z,0.00
2024-05-09T03:04:40.968Z,0.00
2024-05-09T03:05:41.215Z,0.00
2024-05-09T03:06:41.927Z,0.00
2024-05-09T03:07:41.915Z,0.00
2024-05-09T03:08:40.910Z,4.00
2024-05-09T03:09:40.881Z,0.00
2024-05-09T03:10:40.907Z,0.00
2024-05-09T03:11:41.002Z,4.00
2024-05-09T03:12:40.872Z,0.00
2024-05-09T03:13:40.842Z,4.00
2024-05-09T03:14:40.878Z,4.00
2024-05-09T03:15:40.850Z,4.00
2024-05-09T03:16:40.815Z,4.00
2024-05-09T03:17:40.971Z,4.00
2024-05-09T03:18:40.863Z,8.00
2024-05-09T03:19:40.788Z,8.00
2024-05-09T03:20:40.966Z,8.00
2024-05-09T03:21:40.761Z,8.00
2024-05-09T03:22:40.757Z,8.00
2024-05-09T03:23:40.816Z,12.00
2024-05-09T03:24:40.764Z,12.00
2024-05-09T03:25:40.736Z,16.00
2024-05-09T03:26:40.785Z,16.00
2024-05-09T03:27:40.716Z,16.00
2024-05-09T03:28:40.694Z,20.00
2024-05-09T03:29:40.693Z,20.00
2024-05-09T03:30:42.915Z,24.00
2024-05-09T03:31:40.710Z,28.00
2024-05-09T03:32:40.753Z,32.00
2024-05-09T03:33:40.941Z,36.00
2024-05-09T03:34:40.658Z,40.00
2024-05-09T03:35:40.694Z,44.00
2024-05-09T03:36:40.611Z,48.00
2024-05-09T03:37:40.611Z,52.00
2024-05-09T03:38:40.676Z,56.00
2024-05-09T03:39:40.584Z,64.00
2024-05-09T03:40:40.582Z,68.00
2024-05-09T03:41:40.611Z,72.00
2024-05-09T03:42:40.571Z,80.00
2024-05-09T03:43:40.573Z,88.00
2024-05-09T03:44:40.626Z,96.00
2024-05-09T03:45:40.523Z,100.00
2024-05-09T03:46:40.521Z,112.00
2024-05-09T03:47:40.829Z,116.00
2024-05-09T03:48:41.622Z,124.00
2024-05-09T03:49:40.782Z,136.00
2024-05-09T03:50:40.569Z,144.00
2024-05-09T03:51:40.467Z,152.00
2024-05-09T03:52:40.463Z,160.00
2024-05-09T03:53:40.515Z,172.00
2024-05-09T03:54:40.430Z,180.00
2024-05-09T03:55:40.440Z,192.00
2024-05-09T03:56:40.623Z,204.00
2024-05-09T03:57:40.603Z,212.00
2024-05-09T03:58:40.388Z,224.00
2024-05-09T03:59:40.437Z,236.00
2024-05-09T04:00:40.598Z,248.00
2024-05-09T04:01:40.524Z,260.00
2024-05-09T04:02:40.443Z,272.00
2024-05-09T04:03:40.484Z,280.00
2024-05-09T04:04:40.380Z,296.00
2024-05-09T04:05:41.641Z,308.00
2024-05-09T04:06:40.328Z,360.00
2024-05-09T04:07:40.324Z,468.00
2024-05-09T04:08:40.400Z,552.00
2024-05-09T04:09:40.288Z,608.00
2024-05-09T04:10:40.294Z,644.00
2024-05-09T04:11:40.475Z,676.00
2024-05-09T04:12:40.252Z,712.00
2024-05-09T04:13:40.244Z,748.00
2024-05-09T04:14:40.305Z,780.00
2024-05-09T04:15:40.233Z,816.00
2024-05-09T04:16:40.222Z,852.00
2024-05-09T04:17:40.394Z,892.00
2024-05-09T04:18:40.285Z,932.00
2024-05-09T04:19:40.237Z,964.00
2024-05-09T04:20:41.291Z,1008.00
2024-05-09T04:21:40.163Z,1036.00
2024-05-09T04:22:40.153Z,1072.00
2024-05-09T04:23:40.203Z,1104.00
2024-05-09T04:24:40.136Z,1144.00
2024-05-09T04:25:40.136Z,1180.00
2024-05-09T04:26:40.146Z,1212.00
2024-05-09T04:27:40.132Z,1244.00
2024-05-09T04:28:40.090Z,1276.00
2024-05-09T04:29:40.155Z,1308.00
2024-05-09T04:30:41.574Z,1340.00
2024-05-09T04:31:40.068Z,1368.00
2024-05-09T04:32:40.200Z,1400.00
2024-05-09T04:33:40.153Z,1428.00
2024-05-09T04:34:40.111Z,1452.00
2024-05-09T04:35:40.051Z,1480.00
2024-05-09T04:36:43.194Z,1508.00
2024-05-09T04:37:41.010Z,1536.00
2024-05-09T04:38:40.143Z,1556.00
2024-05-09T04:39:40.007Z,1588.00
2024-05-09T04:40:39.984Z,1612.00
2024-05-09T04:41:40.031Z,1636.00
2024-05-09T04:42:39.977Z,1656.00
2024-05-09T04:43:39.969Z,1680.00
2024-05-09T04:44:39.988Z,1696.00
2024-05-09T04:45:39.926Z,1716.00
2024-05-09T04:46:39.902Z,1732.00
2024-05-09T04:47:40.094Z,1744.00
2024-05-09T04:48:40.021Z,1764.00
2024-05-09T04:49:40.924Z,1784.00
2024-05-09T04:50:40.162Z,1804.00
2024-05-09T04:51:39.871Z,1820.00
2024-05-09T04:52:39.851Z,1836.00
2024-05-09T04:53:40.075Z,1852.00
2024-05-09T04:54:39.834Z,1864.00
2024-05-09T04:55:40.295Z,1880.00
2024-05-09T04:56:39.822Z,1904.00
2024-05-09T04:57:39.840Z,1888.00
2024-05-09T04:58:39.803Z,1772.00
2024-05-09T04:59:39.793Z,1948.00
2024-05-09T05:00:41.442Z,1952.00
2024-05-09T05:01:39.782Z,1960.00
2024-05-09T05:02:39.883Z,1964.00
2024-05-09T05:03:39.965Z,1968.00
2024-05-09T05:04:39.746Z,1960.00
2024-05-09T05:05:39.773Z,1968.00
2024-05-09T05:06:39.727Z,1980.00
2024-05-09T05:07:39.722Z,1992.00
2024-05-09T05:08:39.780Z,2000.00
2024-05-09T05:09:39.679Z,2008.00
2024-05-09T05:10:39.675Z,2020.00
2024-05-09T05:11:39.781Z,2024.00
2024-05-09T05:12:39.662Z,2036.00
2024-05-09T05:13:41.611Z,2044.00
2024-05-09T05:14:40.757Z,2056.00
2024-05-09T05:15:39.619Z,2068.00
2024-05-09T05:16:39.632Z,2088.00
2024-05-09T05:17:39.775Z,2052.00
2024-05-09T05:18:39.698Z,2116.00
2024-05-09T05:19:39.678Z,2124.00
2024-05-09T05:20:39.616Z,2136.00
2024-05-09T05:21:39.570Z,2140.00
2024-05-09T05:22:39.551Z,2152.00
2024-05-09T05:23:39.746Z,2180.00
2024-05-09T05:24:39.529Z,2100.00
2024-05-09T05:25:39.546Z,2164.00
2024-05-09T05:26:40.571Z,2200.00
2024-05-09T05:27:39.506Z,2208.00
2024-05-09T05:28:39.519Z,2216.00
2024-05-09T05:29:39.569Z,2220.00
2024-05-09T05:30:39.484Z,2232.00
2024-05-09T05:31:39.563Z,2240.00
2024-05-09T05:32:39.592Z,2252.00
2024-05-09T05:33:39.539Z,2260.00
2024-05-09T05:34:39.425Z,2268.00
2024-05-09T05:35:39.846Z,2276.00
2024-05-09T05:36:39.410Z,2288.00
2024-05-09T05:37:39.409Z,2300.00
2024-05-09T05:38:39.399Z,2324.00
2024-05-09T05:39:39.391Z,2340.00
2024-05-09T05:40:40.528Z,2348.00
2024-05-09T05:41:39.391Z,2356.00
2024-05-09T05:42:39.344Z,2368.00
2024-05-09T05:43:39.330Z,2384.00
2024-05-09T05:44:39.474Z,2396.00
2024-05-09T05:45:39.529Z,2412.00
2024-05-09T05:46:39.640Z,2428.00
2024-05-09T05:47:39.404Z,2440.00
2024-05-09T05:48:39.371Z,2492.00
2024-05-09T05:49:40.331Z,2492.00
2024-05-09T05:50:39.359Z,2488.00
2024-05-09T05:51:40.243Z,2504.00
2024-05-09T05:52:39.252Z,2524.00
2024-05-09T05:53:39.283Z,2544.00
2024-05-09T05:54:39.245Z,2588.00
2024-05-09T05:55:39.420Z,2608.00
2024-05-09T05:56:39.282Z,2632.00
2024-05-09T05:57:39.180Z,2672.00
2024-05-09T05:58:39.205Z,2704.00
2024-05-09T05:59:39.284Z,2696.00
2024-05-09T06:00:40.627Z,2680.00
2024-05-09T06:01:39.158Z,2668.00
2024-05-09T06:02:39.212Z,2680.00
2024-05-09T06:03:39.509Z,2676.00
2024-05-09T06:04:39.175Z,2664.00
2024-05-09T06:05:39.260Z,2676.00
2024-05-09T06:06:39.092Z,2700.00
2024-05-09T06:07:39.104Z,2720.00
2024-05-09T06:08:39.179Z,2720.00
2024-05-09T06:09:39.058Z,2700.00
2024-05-09T06:10:40.838Z,2724.00
2024-05-09T06:11:39.108Z,2808.00
2024-05-09T06:12:39.084Z,2868.00
2024-05-09T06:13:39.012Z,2860.00
2024-05-09T06:14:39.039Z,2828.00
2024-05-09T06:15:38.988Z,2816.00
2024-05-09T06:16:38.992Z,2816.00
2024-05-09T06:17:39.220Z,2812.00
2024-05-09T06:18:39.083Z,2788.00
2024-05-09T06:19:39.043Z,2760.00
2024-05-09T06:20:39.013Z,2768.00
2024-05-09T06:21:38.963Z,2768.00
2024-05-09T06:22:38.934Z,2740.00
2024-05-09T06:23:39.051Z,2732.00
2024-05-09T06:24:38.902Z,2744.00
2024-05-09T06:25:38.953Z,2768.00
2024-05-09T06:26:39.069Z,2800.00
2024-05-09T06:27:38.878Z,2832.00
2024-05-09T06:28:38.861Z,2860.00
2024-05-09T06:29:38.918Z,2884.00
2024-05-09T06:30:41.228Z,2912.00
2024-05-09T06:31:38.851Z,2952.00
2024-05-09T06:32:38.921Z,2992.00
2024-05-09T06:33:39.047Z,3000.00
2024-05-09T06:34:38.967Z,2996.00
2024-05-09T06:35:38.958Z,2996.00
2024-05-09T06:36:38.806Z,3016.00
2024-05-09T06:37:38.775Z,3052.00
2024-05-09T06:38:38.836Z,3076.00
2024-05-09T06:39:38.748Z,3108.00
2024-05-09T06:40:40.322Z,3112.00
2024-05-09T06:41:38.824Z,3124.00
2024-05-09T06:42:38.722Z,3124.00
2024-05-09T06:43:38.711Z,3136.00
2024-05-09T06:44:38.736Z,3148.00
2024-05-09T06:45:38.701Z,3148.00
2024-05-09T06:46:38.672Z,3152.00
2024-05-09T06:47:38.805Z,3164.00
2024-05-09T06:48:38.783Z,3168.00
2024-05-09T06:49:38.716Z,3172.00
2024-05-09T06:50:39.798Z,3172.00
2024-05-09T06:51:38.623Z,3172.00
2024-05-09T06:52:38.600Z,3188.00
2024-05-09T06:53:38.671Z,3196.00
2024-05-09T06:54:38.604Z,3212.00
2024-05-09T06:55:38.570Z,3224.00
2024-05-09T06:56:38.584Z,3220.00
2024-05-09T06:57:41.487Z,3228.00
2024-05-09T06:58:39.547Z,3236.00
2024-05-09T06:59:38.596Z,3252.00
2024-05-09T07:00:40.897Z,3252.00
2024-05-09T07:01:38.538Z,3256.00
2024-05-09T07:02:38.738Z,3244.00
2024-05-09T07:03:38.636Z,3240.00
2024-05-09T07:04:38.554Z,3256.00
2024-05-09T07:05:38.529Z,3256.00
2024-05-09T07:06:38.458Z,3236.00
2024-05-09T07:07:38.462Z,3220.00
2024-05-09T07:08:38.640Z,3216.00
2024-05-09T07:09:38.433Z,3196.00
2024-05-09T07:10:38.663Z,3184.00
2024-05-09T07:11:38.495Z,3184.00
2024-05-09T07:12:38.414Z,3192.00
2024-05-09T07:13:38.441Z,3172.00
2024-05-09T07:14:38.752Z,3176.00
2024-05-09T07:15:38.377Z,3176.00
2024-05-09T07:16:38.350Z,3164.00
2024-05-09T07:17:38.569Z,3152.00
2024-05-09T07:18:38.576Z,3148.00
2024-05-09T07:19:38.503Z,3140.00
2024-05-09T07:20:38.372Z,3032.00
2024-05-09T07:21:38.298Z,3076.00
2024-05-09T07:23:10.523Z,3044.00
2024-05-09T07:23:38.402Z,3024.00
2024-05-09T07:24:38.271Z,3008.00
2024-05-09T07:25:38.344Z,3020.00
2024-05-09T07:26:38.330Z,3004.00
2024-05-09T07:27:38.246Z,2992.00
2024-05-09T07:28:38.225Z,2980.00
2024-05-09T07:29:38.851Z,2972.00
2024-05-09T07:30:39.234Z,2980.00
2024-05-09T07:31:38.215Z,2988.00
2024-05-09T07:32:38.432Z,3000.00
2024-05-09T07:33:38.275Z,2964.00
2024-05-09T07:34:38.201Z,2896.00
2024-05-09T07:35:38.241Z,2904.00
2024-05-09T07:36:38.168Z,2936.00
2024-05-09T07:37:38.135Z,2976.00
2024-05-09T07:38:38.303Z,3088.00
2024-05-09T07:39:38.112Z,3240.00
2024-05-09T07:40:38.102Z,3224.00
2024-05-09T07:41:38.138Z,3176.00
2024-05-09T07:42:38.246Z,3128.00
2024-05-09T07:43:38.071Z,3088.00
2024-05-09T07:44:38.136Z,3076.00
2024-05-09T07:45:48.508Z,2960.00
2024-05-09T07:47:47.684Z,2840.00
2024-05-09T07:49:11.929Z,2860.00
2024-05-09T07:53:14.317Z,3528.00
2024-05-09T07:53:44.134Z,3192.00
2024-05-09T07:54:39.079Z,2952.00
2024-05-09T07:55:38.079Z,2868.00
2024-05-09T07:56:38.431Z,2908.00
2024-05-09T07:57:38.003Z,2908.00
2024-05-09T07:58:37.922Z,3068.00
2024-05-09T07:59:38.176Z,3480.00
2024-05-09T08:00:38.002Z,3636.00
2024-05-09T08:01:38.951Z,3408.00
2024-05-09T08:02:37.944Z,3176.00
2024-05-09T08:03:38.071Z,2920.00
2024-05-09T08:04:37.969Z,2680.00
2024-05-09T08:05:37.896Z,2620.00
2024-05-09T08:06:37.890Z,2772.00
2024-05-09T08:07:37.844Z,2604.00
2024-05-09T08:08:37.840Z,2360.00
2024-05-09T08:09:38.507Z,2432.00
2024-05-09T08:10:38.958Z,2416.00
2024-05-09T08:11:38.852Z,2272.00
2024-05-09T08:12:37.784Z,2188.00
2024-05-09T08:13:37.780Z,2168.00
2024-05-09T08:14:37.771Z,2212.00
2024-05-09T08:15:37.807Z,2232.00
2024-05-09T08:16:37.751Z,2220.00
2024-05-09T08:17:37.858Z,2216.00
2024-05-09T08:18:37.982Z,2204.00
2024-05-09T08:19:37.833Z,2184.00
2024-05-09T08:20:37.698Z,2188.00
2024-05-09T08:21:37.754Z,2220.00
2024-05-09T08:22:37.671Z,2304.00
2024-05-09T08:23:37.669Z,2360.00
2024-05-09T08:24:37.776Z,2348.00
2024-05-09T08:25:37.648Z,2296.00
2024-05-09T08:26:37.641Z,2264.00
2024-05-09T08:27:37.677Z,2224.00
2024-05-09T08:28:37.624Z,2272.00
2024-05-09T08:29:37.603Z,2232.00
2024-05-09T08:30:38.404Z,2228.00
2024-05-09T08:31:37.695Z,2152.00
2024-05-09T08:32:37.667Z,2164.00
2024-05-09T08:33:37.751Z,2184.00
2024-05-09T08:34:37.571Z,2196.00
2024-05-09T08:35:37.535Z,2236.00
2024-05-09T08:36:37.570Z,2292.00
2024-05-09T08:37:39.964Z,2252.00
2024-05-09T08:38:37.506Z,2256.00
2024-05-09T08:39:37.616Z,2280.00
2024-05-09T08:40:38.283Z,2340.00
2024-05-09T08:41:37.530Z,2312.00
2024-05-09T08:42:37.499Z,2328.00
2024-05-09T08:43:39.886Z,2400.00
2024-05-09T08:44:38.442Z,2400.00
2024-05-09T08:45:37.560Z,2424.00
2024-05-09T08:46:37.500Z,2404.00
2024-05-09T08:47:37.482Z,2360.00
2024-05-09T08:48:37.597Z,2380.00
2024-05-09T08:49:37.884Z,2404.00
2024-05-09T08:50:39.768Z,2436.00
2024-05-09T08:51:37.647Z,2428.00
2024-05-09T08:52:37.379Z,2424.00
2024-05-09T08:53:37.373Z,2460.00
2024-05-09T08:54:37.391Z,2456.00
2024-05-09T08:55:40.793Z,2596.00
2024-05-09T08:56:38.359Z,2700.00
2024-05-09T08:57:37.393Z,2872.00
2024-05-09T08:58:37.308Z,2712.00
2024-05-09T08:59:37.302Z,2500.00
2024-05-09T09:00:37.911Z,2432.00
2024-05-09T09:01:38.152Z,2460.00
2024-05-09T09:02:38.381Z,2500.00
2024-05-09T09:03:37.628Z,2540.00
2024-05-09T09:04:37.429Z,2596.00
2024-05-09T09:05:37.495Z,2648.00
2024-05-09T09:06:37.284Z,2672.00
2024-05-09T09:07:37.258Z,2636.00
2024-05-09T09:08:37.202Z,2600.00
2024-05-09T09:09:37.230Z,2612.00
2024-05-09T09:10:37.230Z,2736.00
2024-05-09T09:11:37.321Z,2628.00
2024-05-09T09:12:37.218Z,2708.00
2024-05-09T09:13:37.170Z,2792.00
2024-05-09T09:14:37.156Z,2672.00
2024-05-09T09:15:37.153Z,2676.00
2024-05-09T09:16:37.128Z,2548.00
2024-05-09T09:17:37.166Z,2480.00
2024-05-09T09:18:37.409Z,2528.00
2024-05-09T09:19:37.239Z,2516.00
2024-05-09T09:20:38.134Z,2528.00
2024-05-09T09:21:37.335Z,2548.00
2024-05-09T09:22:37.059Z,2668.00
2024-05-09T09:23:37.061Z,2508.00
2024-05-09T09:24:37.069Z,2460.00
2024-05-09T09:25:37.029Z,2484.00
2024-05-09T09:26:37.023Z,2484.00
2024-05-09T09:27:37.027Z,2484.00
2024-05-09T09:28:37.081Z,2480.00
2024-05-09T09:29:37.013Z,2476.00
2024-05-09T09:30:38.151Z,2484.00
2024-05-09T09:31:36.992Z,2516.00
2024-05-09T09:32:37.087Z,2536.00
2024-05-09T09:33:37.087Z,2584.00
2024-05-09T09:34:36.992Z,2620.00
2024-05-09T09:35:36.929Z,2620.00
2024-05-09T09:36:36.943Z,2640.00
2024-05-09T09:37:36.983Z,2688.00
2024-05-09T09:38:36.918Z,2708.00
2024-05-09T09:39:36.928Z,2760.00
2024-05-09T09:40:40.470Z,2864.00
2024-05-09T09:41:37.863Z,3064.00
2024-05-09T09:42:36.913Z,3240.00
2024-05-09T09:43:36.851Z,3320.00
2024-05-09T09:44:39.581Z,3216.00
2024-05-09T09:45:38.843Z,3176.00
2024-05-09T09:46:36.859Z,3200.00
2024-05-09T09:47:36.942Z,3372.00
2024-05-09T09:48:36.892Z,3456.00
2024-05-09T09:49:36.919Z,3456.00
2024-05-09T09:50:36.802Z,3380.00
2024-05-09T09:51:36.827Z,3436.00
2024-05-09T09:52:36.767Z,3440.00
2024-05-09T09:53:36.766Z,3468.00
2024-05-09T09:54:36.770Z,3576.00
2024-05-09T09:55:36.732Z,4148.00
2024-05-09T09:56:36.738Z,4228.00
2024-05-09T09:57:36.744Z,4172.00
2024-05-09T09:58:36.716Z,4372.00
2024-05-09T09:59:36.693Z,4568.00
2024-05-09T10:00:36.807Z,3344.00
2024-05-09T10:01:36.892Z,3624.00
2024-05-09T10:02:36.744Z,4660.00
2024-05-09T10:03:36.934Z,5432.00
2024-05-09T10:04:36.755Z,5640.00
2024-05-09T10:05:36.935Z,7436.00
2024-05-09T10:06:36.706Z,7968.00
2024-05-09T10:07:36.617Z,7304.00
2024-05-09T10:08:36.629Z,6436.00
2024-05-09T10:09:36.616Z,6472.00
2024-05-09T10:10:36.677Z,6644.00
2024-05-09T10:11:45.060Z,6396.00
2024-05-09T10:12:38.650Z,3256.00
2024-05-09T10:13:36.599Z,5696.00
2024-05-09T10:14:36.548Z,7204.00
2024-05-09T10:15:36.576Z,7928.00
2024-05-09T10:16:36.555Z,8268.00
2024-05-09T10:17:36.705Z,9776.00
2024-05-09T10:18:36.751Z,11916.00
2024-05-09T10:19:36.590Z,8404.00
2024-05-09T10:20:36.566Z,11812.00
2024-05-09T10:21:36.533Z,6932.00
2024-05-09T10:22:37.242Z,3360.00
2024-05-09T10:23:36.466Z,3168.00
2024-05-09T10:24:36.481Z,3332.00
2024-05-09T10:25:36.485Z,3500.00
2024-05-09T10:26:36.428Z,3828.00
2024-05-09T10:27:36.442Z,4560.00
2024-05-09T10:28:36.407Z,4548.00
2024-05-09T10:29:36.414Z,4528.00
2024-05-09T10:30:36.900Z,5400.00
2024-05-09T10:31:36.403Z,10880.00
2024-05-09T10:32:36.433Z,31744.00
2024-05-09T10:33:36.475Z,30784.00
2024-05-09T10:34:36.464Z,5460.00
2024-05-09T10:35:36.332Z,4132.00
2024-05-09T10:36:36.373Z,3656.00
2024-05-09T10:37:36.389Z,3576.00
2024-05-09T10:38:36.387Z,3556.00
2024-05-09T10:39:36.342Z,5168.00
2024-05-09T10:40:36.424Z,3592.00
2024-05-09T10:41:36.279Z,3248.00
2024-05-09T10:42:36.398Z,3208.00
2024-05-09T10:43:36.265Z,3088.00
2024-05-09T10:44:36.246Z,3040.00
2024-05-09T10:45:36.235Z,3152.00
2024-05-09T10:46:36.249Z,3344.00
2024-05-09T10:47:36.322Z,3480.00
2024-05-09T10:48:36.253Z,3716.00
2024-05-09T10:49:36.221Z,3800.00
2024-05-09T10:50:36.201Z,3936.00
2024-05-09T10:51:36.218Z,3708.00
2024-05-09T10:52:36.175Z,3476.00
2024-05-09T10:53:36.154Z,3180.00
2024-05-09T10:54:36.173Z,3120.00
2024-05-09T10:55:36.152Z,3280.00
2024-05-09T10:56:36.127Z,3460.00
2024-05-09T10:57:36.158Z,3672.00
2024-05-09T10:58:36.105Z,3324.00
2024-05-09T10:59:36.145Z,3408.00
2024-05-09T11:00:36.797Z,3628.00
2024-05-09T11:01:36.182Z,3752.00
2024-05-09T11:02:36.266Z,3820.00
2024-05-09T11:03:36.571Z,3844.00
2024-05-09T11:04:36.096Z,3840.00
2024-05-09T11:05:36.221Z,4072.00
2024-05-09T11:06:36.106Z,5852.00
2024-05-09T11:07:36.017Z,6848.00
2024-05-09T11:08:36.002Z,10600.00
2024-05-09T11:09:36.019Z,37696.00
2024-05-09T11:10:36.025Z,34784.00
2024-05-09T11:11:36.065Z,6276.00
2024-05-09T11:12:36.003Z,4284.00
2024-05-09T11:13:36.056Z,3416.00
2024-05-09T11:14:35.953Z,3268.00
2024-05-09T11:15:36.059Z,3304.00
2024-05-09T11:16:35.959Z,3372.00
2024-05-09T11:17:36.108Z,3516.00
2024-05-09T11:18:38.937Z,3772.00
2024-05-09T11:19:35.962Z,4612.00
2024-05-09T11:20:36.169Z,4372.00
2024-05-09T11:21:35.916Z,4020.00
2024-05-09T11:22:35.880Z,3584.00
2024-05-09T11:23:35.866Z,3480.00
2024-05-09T11:24:35.928Z,3352.00
2024-05-09T11:25:35.857Z,3244.00
2024-05-09T11:26:35.840Z,3232.00
2024-05-09T11:27:35.900Z,3244.00
2024-05-09T11:28:35.870Z,3288.00
2024-05-09T11:29:35.847Z,3464.00
2024-05-09T11:30:35.873Z,3688.00
2024-05-09T11:31:35.922Z,3824.00
2024-05-09T11:32:35.975Z,3992.00
2024-05-09T11:33:35.913Z,4348.00
2024-05-09T11:34:35.853Z,15456.00
2024-05-09T11:35:35.777Z,28448.00
2024-05-09T11:36:35.790Z,20032.00
2024-05-09T11:37:37.224Z,5872.00
2024-05-09T11:38:35.725Z,7888.00
2024-05-09T11:39:35.756Z,6140.00
2024-05-09T11:40:35.729Z,5168.00
2024-05-09T11:41:35.694Z,5160.00
2024-05-09T11:42:35.693Z,9140.00
2024-05-09T11:43:35.712Z,7812.00
2024-05-09T11:44:35.699Z,35168.00
2024-05-09T11:45:35.669Z,39040.00
2024-05-09T11:46:35.639Z,33664.00
2024-05-09T11:47:35.693Z,30400.00
2024-05-09T11:48:35.751Z,31008.00
2024-05-09T11:49:35.699Z,32064.00
2024-05-09T11:50:36.353Z,30496.00
2024-05-09T11:51:36.377Z,29600.00
2024-05-09T11:52:35.633Z,31136.00
2024-05-09T11:53:35.604Z,33184.00
2024-05-09T11:54:35.582Z,32352.00
2024-05-09T11:55:35.638Z,29120.00
2024-05-09T11:56:35.539Z,24320.00
2024-05-09T11:57:35.588Z,7012.00
2024-05-09T11:58:35.520Z,3980.00
2024-05-09T11:59:35.515Z,3556.00
2024-05-09T12:00:37.568Z,3356.00
2024-05-09T12:01:35.568Z,3356.00
2024-05-09T12:02:35.638Z,3312.00
2024-05-09T12:03:35.541Z,3356.00
2024-05-09T12:04:35.524Z,3448.00
2024-05-09T12:05:35.536Z,3436.00
2024-05-09T12:06:35.497Z,3360.00
2024-05-09T12:07:35.456Z,3288.00
2024-05-09T12:08:35.424Z,3272.00
2024-05-09T12:09:35.422Z,3216.00
2024-05-09T12:10:37.097Z,3156.00
2024-05-09T12:11:35.476Z,3112.00
2024-05-09T12:12:37.300Z,3140.00
2024-05-09T12:13:36.393Z,3240.00
2024-05-09T12:14:35.366Z,3328.00
2024-05-09T12:15:35.376Z,3396.00
2024-05-09T12:16:35.424Z,3452.00
2024-05-09T12:17:35.380Z,3604.00
2024-05-09T12:18:35.369Z,3396.00
2024-05-09T12:19:35.965Z,3492.00
2024-05-09T12:20:38.492Z,5432.00
2024-05-09T12:21:35.374Z,3936.00
2024-05-09T12:22:36.347Z,17600.00
2024-05-09T12:23:35.289Z,17056.00
2024-05-09T12:24:35.312Z,17184.00
2024-05-09T12:25:35.280Z,17696.00
2024-05-09T12:26:35.292Z,16992.00
2024-05-09T12:27:35.290Z,15776.00
2024-05-09T12:28:36.252Z,16064.00
2024-05-09T12:29:38.244Z,17216.00